Time;durP1;ratioP1;P1;durP2;ratioP2;P2;SDS_P1;SDS_P2;PMS_P1;PMS_P2;Temp;Humidity;BMP_temperature;BMP_pressure;BME280_temperature;BME280_humidity;BME280_pressure;Samples;Min_cycle;Max_cycle;Signal;HPM_P1;HPM_P2
2021/10/25 00:01:23;;;;;;;12.10;11.00;;;7.80;65.60;;;;;;5033667;28;20510;-89
2021/10/25 00:03:48;;;;;;;13.43;12.13;;;7.70;64.60;;;;;;5033835;28;20172;-81
2021/10/25 00:06:14;;;;;;;13.47;12.10;;;7.60;64.10;;;;;;5033320;28;20185;-81
2021/10/25 00:08:40;;;;;;;12.93;11.60;;;7.50;64.80;;;;;;5032950;28;20199;-81
2021/10/25 00:11:05;;;;;;;13.10;11.83;;;7.40;65.00;;;;;;5033450;28;20184;-80
2021/10/25 00:13:31;;;;;;;13.70;12.50;;;7.40;65.40;;;;;;5034016;28;20554;-81
2021/10/25 00:15:57;;;;;;;13.90;11.00;;;7.50;65.70;;;;;;5033111;28;20223;-80
2021/10/25 00:18:22;;;;;;;12.70;11.60;;;7.50;66.20;;;;;;5032871;28;20180;-81
2021/10/25 00:20:48;;;;;;;12.97;11.87;;;7.40;66.40;;;;;;5033536;28;20521;-82
2021/10/25 00:23:14;;;;;;;14.00;12.20;;;7.50;65.80;;;;;;5032941;28;20173;-81
2021/10/25 00:25:40;;;;;;;13.60;12.40;;;7.50;66.10;;;;;;5033297;28;20200;-82
2021/10/25 00:28:06;;;;;;;12.20;11.20;;;7.50;65.80;;;;;;5033556;28;20169;-81
2021/10/25 00:30:31;;;;;;;12.50;11.47;;;7.40;65.10;;;;;;5034352;28;20512;-88
2021/10/25 00:32:57;;;;;;;12.10;11.00;;;7.40;65.70;;;;;;5034227;28;20584;-81
2021/10/25 00:35:23;;;;;;;12.43;11.27;;;7.40;65.50;;;;;;5034183;28;20270;-81
2021/10/25 00:37:48;;;;;;;12.60;11.40;;;7.40;65.60;;;;;;5032611;28;20189;-82
2021/10/25 00:40:14;;;;;;;11.67;10.70;;;7.40;65.40;;;;;;5033096;28;20298;-82
2021/10/25 00:42:40;;;;;;;12.10;11.00;;;7.30;65.60;;;;;;5032762;28;20173;-83
2021/10/25 00:45:06;;;;;;;12.07;11.00;;;7.30;65.90;;;;;;5032609;28;20532;-82
2021/10/25 00:47:32;;;;;;;12.30;11.30;;;7.30;66.50;;;;;;5032434;28;20173;-81
2021/10/25 00:49:58;;;;;;;11.37;10.40;;;7.30;66.30;;;;;;5033841;28;20473;-81
2021/10/25 00:52:23;;;;;;;13.30;11.47;;;7.20;66.70;;;;;;5032825;28;20816;-82
2021/10/25 00:54:49;;;;;;;12.33;11.03;;;7.20;66.40;;;;;;5033679;28;20194;-81
2021/10/25 00:57:15;;;;;;;11.37;10.37;;;7.20;66.60;;;;;;5032446;28;20177;-81
2021/10/25 00:59:40;;;;;;;12.00;10.90;;;7.30;66.60;;;;;;5033478;28;20173;-81
2021/10/25 01:02:06;;;;;;;11.40;10.50;;;7.20;65.60;;;;;;5033671;28;20263;-82
2021/10/25 01:04:32;;;;;;;14.37;11.33;;;7.20;66.90;;;;;;5032373;28;20177;-82
2021/10/25 01:06:59;;;;;;;12.70;11.60;;;7.20;66.60;;;;;;5032112;28;20187;-82
2021/10/25 01:09:26;;;;;;;13.07;11.77;;;7.20;66.40;;;;;;5032092;28;20463;-82
2021/10/25 01:11:52;;;;;;;13.00;10.80;;;7.20;66.70;;;;;;5032267;28;20403;-81
2021/10/25 01:14:18;;;;;;;12.50;11.37;;;7.20;66.10;;;;;;5031809;28;20913;-80
2021/10/25 01:16:44;;;;;;;12.27;11.17;;;7.20;66.60;;;;;;5032032;28;20422;-81
2021/10/25 01:19:10;;;;;;;12.70;11.50;;;7.20;66.40;;;;;;5032253;28;20817;-81
2021/10/25 01:21:36;;;;;;;12.90;11.80;;;7.20;66.40;;;;;;5032411;28;20423;-81
2021/10/25 01:24:02;;;;;;;12.53;11.43;;;7.10;66.00;;;;;;5031074;28;20419;-81
2021/10/25 01:26:28;;;;;;;11.00;10.10;;;7.20;66.80;;;;;;5032093;28;20506;-81
2021/10/25 01:28:54;;;;;;;13.93;12.50;;;7.20;65.80;;;;;;5031348;28;20549;-82
2021/10/25 01:31:21;;;;;;;12.53;11.53;;;7.30;65.40;;;;;;5031827;28;20175;-81
2021/10/25 01:33:51;;;;;;;13.30;11.77;;;7.20;65.30;;;;;;5032814;28;20252;-82
2021/10/25 01:36:17;;;;;;;12.23;11.13;;;7.20;66.10;;;;;;5031656;28;20526;-81
2021/10/25 01:38:43;;;;;;;12.47;11.23;;;7.10;66.50;;;;;;5031298;28;20935;-82
2021/10/25 01:41:09;;;;;;;12.53;11.33;;;7.10;66.40;;;;;;5031632;28;20455;-82
2021/10/25 01:43:36;;;;;;;11.57;10.40;;;7.10;67.00;;;;;;5031580;28;20540;-81
2021/10/25 01:46:05;;;;;;;12.97;11.60;;;7.00;66.30;;;;;;5031495;28;20423;-81
2021/10/25 01:48:31;;;;;;;12.53;11.43;;;7.00;66.80;;;;;;5031056;28;20521;-81
2021/10/25 01:50:57;;;;;;;13.40;12.10;;;6.90;66.50;;;;;;5031473;28;20907;-82
2021/10/25 01:53:23;;;;;;;13.73;12.53;;;6.90;66.40;;;;;;5031361;28;20462;-81
2021/10/25 01:55:54;;;;;;;13.13;11.93;;;6.90;66.70;;;;;;5031174;28;20173;-81
2021/10/25 01:58:20;;;;;;;14.50;12.93;;;6.90;66.20;;;;;;5031275;28;20430;-82
2021/10/25 02:00:46;;;;;;;14.27;12.97;;;6.90;66.50;;;;;;5031363;28;20422;-80
2021/10/25 02:03:11;;;;;;;13.77;12.43;;;6.90;66.50;;;;;;5031266;28;20173;-80
2021/10/25 02:05:37;;;;;;;15.13;13.87;;;7.00;66.80;;;;;;5031135;28;20176;-80
2021/10/25 02:08:03;;;;;;;15.13;13.53;;;7.00;66.50;;;;;;5030893;28;20208;-81
2021/10/25 02:10:29;;;;;;;13.97;12.50;;;7.00;65.80;;;;;;5030920;28;20695;-82
2021/10/25 02:12:56;;;;;;;14.77;13.37;;;6.90;65.90;;;;;;5031154;28;20173;-81
2021/10/25 02:15:21;;;;;;;14.63;13.13;;;6.90;66.00;;;;;;5031002;28;20422;-81
2021/10/25 02:17:47;;;;;;;15.13;13.70;;;6.80;66.10;;;;;;5030812;28;20809;-81
2021/10/25 02:20:13;;;;;;;15.73;14.23;;;6.80;66.80;;;;;;5031095;28;20182;-81
2021/10/25 02:22:39;;;;;;;14.17;12.77;;;6.70;66.60;;;;;;5031058;28;20254;-81
2021/10/25 02:25:05;;;;;;;15.30;13.90;;;6.70;67.30;;;;;;5030801;28;20184;-81
2021/10/25 02:27:31;;;;;;;15.03;13.33;;;6.80;67.30;;;;;;5030684;28;20423;-81
2021/10/25 02:29:57;;;;;;;13.47;12.27;;;6.70;67.00;;;;;;5030729;28;20478;-81
2021/10/25 02:32:23;;;;;;;13.63;12.30;;;6.70;67.40;;;;;;5030939;28;20415;-80
2021/10/25 02:34:49;;;;;;;15.50;13.20;;;6.70;67.40;;;;;;5030986;28;20227;-81
2021/10/25 02:37:16;;;;;;;15.43;13.30;;;6.70;67.70;;;;;;5034420;28;20431;-81
2021/10/25 02:39:43;;;;;;;13.23;12.10;;;6.70;68.00;;;;;;5034923;28;20266;-81
2021/10/25 02:42:10;;;;;;;13.23;12.03;;;6.60;67.80;;;;;;5034753;28;20785;-82
2021/10/25 02:44:35;;;;;;;14.27;12.97;;;6.60;68.40;;;;;;5034900;28;20949;-88
2021/10/25 02:47:01;;;;;;;15.10;13.60;;;6.60;68.40;;;;;;5034706;28;20415;-82
2021/10/25 02:49:28;;;;;;;12.93;11.63;;;6.50;68.50;;;;;;5034807;28;20204;-82
2021/10/25 02:51:53;;;;;;;13.10;11.90;;;6.60;68.10;;;;;;5034713;28;20714;-82
2021/10/25 02:54:19;;;;;;;14.47;13.10;;;6.60;67.50;;;;;;5034705;28;20586;-82
2021/10/25 02:56:45;;;;;;;13.47;12.37;;;6.50;67.20;;;;;;5034419;28;20633;-80
2021/10/25 02:59:10;;;;;;;13.80;12.60;;;6.50;67.40;;;;;;5034516;28;20263;-80
2021/10/25 03:01:37;;;;;;;14.90;13.30;;;6.50;67.90;;;;;;5034459;28;20657;-87
2021/10/25 03:04:04;;;;;;;17.17;14.30;;;6.50;67.70;;;;;;5034557;28;20183;-88
2021/10/25 03:06:30;;;;;;;14.33;13.00;;;6.50;68.10;;;;;;5035034;28;20425;-88
2021/10/25 03:08:55;;;;;;;13.40;12.03;;;6.60;67.90;;;;;;5034341;28;20463;-88
2021/10/25 03:11:21;;;;;;;13.13;12.03;;;6.50;66.70;;;;;;5036359;28;20172;-87
2021/10/25 03:13:47;;;;;;;13.63;12.33;;;6.40;67.10;;;;;;5034764;28;20176;-90
2021/10/25 03:16:13;;;;;;;13.43;12.17;;;6.40;67.40;;;;;;5035788;28;20410;-88
2021/10/25 03:18:38;;;;;;;13.37;12.17;;;6.30;67.90;;;;;;5034436;28;20208;-88
2021/10/25 03:21:04;;;;;;;13.63;12.47;;;6.40;67.80;;;;;;5034459;28;20176;-89
2021/10/25 03:23:32;;;;;;;13.33;12.20;;;6.40;67.90;;;;;;5034732;28;20179;-87
2021/10/25 03:25:58;;;;;;;14.33;12.83;;;6.50;67.70;;;;;;5034491;28;20181;-88
2021/10/25 03:28:24;;;;;;;13.47;12.03;;;6.40;67.20;;;;;;5034002;28;20411;-87
2021/10/25 03:30:50;;;;;;;21.80;19.60;;;6.40;67.30;;;;;;5034614;28;20186;-86
2021/10/25 03:33:16;;;;;;;13.50;12.20;;;6.40;67.70;;;;;;5034157;28;20271;-88
2021/10/25 03:35:41;;;;;;;13.23;12.03;;;6.40;67.20;;;;;;5034551;28;20425;-88
2021/10/25 03:38:09;;;;;;;13.73;12.53;;;6.30;67.50;;;;;;5034600;28;20768;-88
2021/10/25 03:40:36;;;;;;;12.83;11.73;;;6.30;67.60;;;;;;5034834;28;20214;-87
2021/10/25 03:43:02;;;;;;;13.17;12.00;;;6.40;67.50;;;;;;5034461;28;20423;-89
2021/10/25 03:45:36;;;;;;;13.53;12.23;;;6.40;67.60;;;;;;5034250;28;20510;-88
2021/10/25 03:50:48;;;;;;;13.43;12.10;;;6.30;66.60;;;;;;5035853;28;20449;-87
2021/10/25 03:55:55;;;;;;;14.30;12.83;;;6.30;67.10;;;;;;5035305;28;20405;-88
2021/10/25 04:28:11;;;;;;;13.47;12.40;;;6.30;66.70;;;;;;4994753;28;20424;-88
2021/10/25 04:30:38;;;;;;;12.80;11.70;;;6.30;66.90;;;;;;4978070;28;20470;-88
2021/10/25 04:33:04;;;;;;;13.50;12.20;;;6.20;67.00;;;;;;5004081;28;20509;-88
2021/10/25 04:35:31;;;;;;;12.23;11.30;;;6.20;66.80;;;;;;5034308;28;20419;-90
2021/10/25 04:37:56;;;;;;;13.37;12.17;;;6.30;66.80;;;;;;5035557;28;20400;-90
2021/10/25 04:40:22;;;;;;;12.83;11.73;;;6.20;67.00;;;;;;5034937;28;20425;-86
2021/10/25 04:42:48;;;;;;;12.83;11.57;;;6.20;67.80;;;;;;5033935;28;20221;-88
2021/10/25 04:45:18;;;;;;;11.87;10.93;;;6.10;67.20;;;;;;5031373;28;20936;-88
2021/10/25 04:47:44;;;;;;;13.00;11.83;;;6.10;66.50;;;;;;5033644;28;20243;-87
2021/10/25 04:50:10;;;;;;;15.33;11.17;;;6.20;67.10;;;;;;5033377;28;20548;-88
2021/10/25 04:52:35;;;;;;;12.00;11.00;;;6.20;66.40;;;;;;5033490;28;20205;-87
2021/10/25 04:55:01;;;;;;;14.10;12.80;;;6.20;66.80;;;;;;5034413;28;20987;-87
2021/10/25 04:57:27;;;;;;;12.40;11.17;;;6.10;66.10;;;;;;5034590;28;20199;-87
2021/10/25 04:59:52;;;;;;;12.30;11.20;;;6.10;65.60;;;;;;5013389;28;20181;-88
2021/10/25 05:02:18;;;;;;;12.33;10.60;;;6.10;66.60;;;;;;5013350;28;20216;-87
2021/10/25 05:04:44;;;;;;;15.70;10.87;;;6.10;65.90;;;;;;5013844;28;20189;-87
2021/10/25 05:07:10;;;;;;;11.03;10.13;;;6.00;65.60;;;;;;5013318;28;20272;-86
2021/10/25 05:09:35;;;;;;;11.60;10.63;;;6.00;66.20;;;;;;5013303;28;20201;-86
2021/10/25 05:12:02;;;;;;;11.07;9.90;;;6.10;65.30;;;;;;5013690;28;20479;-86
2021/10/25 05:14:29;;;;;;;11.57;10.57;;;6.00;65.70;;;;;;5013849;28;20181;-86
2021/10/25 05:16:54;;;;;;;10.87;10.07;;;6.10;66.40;;;;;;5013341;28;20813;-87
2021/10/25 05:19:20;;;;;;;10.63;9.73;;;6.20;65.60;;;;;;5014735;28;20508;-88
2021/10/25 05:21:46;;;;;;;11.53;10.73;;;6.20;64.70;;;;;;5013854;28;20185;-85
2021/10/25 05:24:12;;;;;;;11.90;10.90;;;6.30;65.30;;;;;;5012984;28;20177;-87
2021/10/25 05:26:37;;;;;;;11.30;10.30;;;6.20;65.80;;;;;;5012783;28;20541;-87
2021/10/25 05:29:03;;;;;;;12.07;10.87;;;6.10;65.50;;;;;;5013024;28;20209;-82
2021/10/25 05:31:29;;;;;;;11.40;10.47;;;6.00;65.90;;;;;;5012315;28;20182;-81
2021/10/25 05:33:56;;;;;;;12.60;11.40;;;6.10;66.90;;;;;;5012307;28;20692;-81
2021/10/25 05:36:21;;;;;;;12.50;11.50;;;6.20;66.00;;;;;;5012796;28;20537;-82
2021/10/25 05:38:47;;;;;;;11.97;10.93;;;6.20;65.70;;;;;;5012581;28;20428;-82
2021/10/25 05:41:14;;;;;;;13.27;12.10;;;6.10;65.70;;;;;;5012720;28;20650;-87
2021/10/25 05:43:41;;;;;;;12.10;11.00;;;6.20;65.70;;;;;;5012051;28;20178;-87
2021/10/25 05:46:07;;;;;;;12.10;11.00;;;6.20;65.80;;;;;;5012039;28;20413;-85
2021/10/25 05:48:33;;;;;;;11.63;10.73;;;6.20;65.90;;;;;;5012818;28;20408;-88
2021/10/25 05:51:02;;;;;;;11.90;10.90;;;6.20;65.60;;;;;;5012096;28;20412;-86
2021/10/25 05:53:28;;;;;;;13.03;11.87;;;6.10;65.70;;;;;;5011457;28;20674;-87
2021/10/25 05:55:54;;;;;;;12.50;11.23;;;6.10;64.90;;;;;;5012024;28;20418;-86
2021/10/25 05:58:21;;;;;;;12.37;10.93;;;6.10;65.60;;;;;;5011700;28;20424;-86
2021/10/25 06:00:57;;;;;;;11.40;10.40;;;6.10;65.10;;;;;;5011792;28;20905;-85
2021/10/25 06:03:24;;;;;;;13.30;12.17;;;6.00;65.40;;;;;;5011973;28;20479;-86
2021/10/25 06:05:50;;;;;;;12.33;11.13;;;6.10;65.00;;;;;;5011909;28;20424;-88
2021/10/25 06:08:17;;;;;;;11.90;10.80;;;6.10;65.30;;;;;;5011550;28;20420;-86
2021/10/25 06:10:43;;;;;;;11.37;10.47;;;6.10;64.80;;;;;;5011537;28;20483;-87
2021/10/25 06:13:11;;;;;;;12.40;11.40;;;6.10;65.20;;;;;;5011713;28;20412;-86
2021/10/25 06:15:39;;;;;;;10.50;9.70;;;6.20;64.80;;;;;;5011751;28;20268;-87
2021/10/25 06:18:08;;;;;;;12.10;10.87;;;6.20;64.40;;;;;;5011672;28;20412;-86
2021/10/25 06:20:37;;;;;;;11.80;10.60;;;6.20;64.30;;;;;;5011431;28;20421;-87
2021/10/25 06:23:11;;;;;;;10.83;9.83;;;6.20;63.90;;;;;;5011549;28;20782;-87
2021/10/25 06:25:37;;;;;;;11.27;10.17;;;6.20;64.20;;;;;;5011503;28;20543;-86
2021/10/25 06:28:03;;;;;;;11.57;10.37;;;6.20;65.10;;;;;;5011932;28;20429;-86
2021/10/25 06:30:29;;;;;;;11.57;10.47;;;6.20;63.40;;;;;;5013627;28;20466;-84
2021/10/25 06:32:55;;;;;;;11.23;10.13;;;6.20;68.90;;;;;;5012198;28;20427;-88
2021/10/25 06:35:25;;;;;;;11.20;10.20;;;6.30;63.80;;;;;;5012903;28;20178;-87
2021/10/25 06:40:19;;;;;;;12.03;10.70;;;6.20;63.20;;;;;;5014540;28;20427;-87
2021/10/25 06:42:45;;;;;;;12.00;10.90;;;6.30;63.80;;;;;;5028498;28;20420;-87
2021/10/25 06:45:14;;;;;;;12.00;10.80;;;6.30;63.40;;;;;;5031842;28;20442;-86
2021/10/25 06:47:41;;;;;;;11.07;9.97;;;6.30;62.40;;;;;;5027375;28;20181;-87
2021/10/25 06:50:07;;;;;;;10.87;9.97;;;6.40;62.70;;;;;;5033040;28;20516;-87
2021/10/25 06:52:33;;;;;;;10.23;9.07;;;6.40;61.90;;;;;;5033134;28;20418;-87
2021/10/25 06:54:59;;;;;;;10.93;9.67;;;6.40;62.40;;;;;;5033622;28;20780;-90
2021/10/25 06:57:25;;;;;;;15.17;11.30;;;6.40;61.70;;;;;;5034303;28;20419;-91
2021/10/25 06:59:51;;;;;;;13.30;9.90;;;6.50;61.70;;;;;;5033935;28;20419;-91
2021/10/25 07:02:17;;;;;;;13.47;9.77;;;6.50;61.90;;;;;;5032588;28;20793;-90
2021/10/25 07:04:43;;;;;;;14.23;9.43;;;6.50;62.30;;;;;;5032248;28;21103;-90
2021/10/25 07:07:10;;;;;;;11.67;10.57;;;6.50;61.60;;;;;;5033075;28;20505;-91
2021/10/25 07:09:36;;;;;;;10.60;9.60;;;6.50;60.80;;;;;;5031886;28;20207;-90
2021/10/25 07:12:01;;;;;;;12.43;10.50;;;6.50;60.60;;;;;;5032991;28;20471;-91
2021/10/25 07:14:35;;;;;;;11.30;10.10;;;6.50;60.30;;;;;;5032970;28;20643;-90
2021/10/25 08:08:50;;;;;;;12.17;10.10;;;8.20;54.70;;;;;;5034803;28;20490;-80
2021/10/25 08:11:18;;;;;;;13.00;11.30;;;8.30;54.20;;;;;;5033698;28;20419;-79
2021/10/25 08:13:45;;;;;;;16.03;11.70;;;8.40;54.40;;;;;;5033808;28;20422;-80
2021/10/25 08:21:12;;;;;;;13.17;11.70;;;8.70;53.20;;;;;;5034918;28;20407;-80
2021/10/25 08:23:38;;;;;;;15.53;14.03;;;8.70;53.50;;;;;;5034724;28;20438;-80
2021/10/25 08:26:05;;;;;;;12.07;10.90;;;8.80;52.90;;;;;;5033139;28;20414;-80
2021/10/25 08:28:30;;;;;;;12.43;11.17;;;8.70;51.60;;;;;;5032992;28;20412;-79
2021/10/25 08:30:58;;;;;;;10.97;9.87;;;8.70;52.10;;;;;;5032967;28;20414;-79
2021/10/25 08:41:01;;;;;;;12.70;11.37;;;8.90;52.80;;;;;;5034534;28;20514;-80
2021/10/25 08:43:27;;;;;;;11.97;10.77;;;9.00;52.50;;;;;;5033437;28;20411;-80
2021/10/25 08:45:56;;;;;;;16.03;11.53;;;9.00;51.90;;;;;;5033571;28;20783;-80
2021/10/25 08:48:22;;;;;;;11.73;10.63;;;9.00;51.50;;;;;;5032556;28;20976;-79
2021/10/25 08:50:48;;;;;;;12.00;10.77;;;9.10;51.60;;;;;;5032681;28;20467;-80
2021/10/25 08:53:15;;;;;;;15.57;11.63;;;9.10;51.70;;;;;;5033431;28;20415;-80
2021/10/25 08:55:41;;;;;;;11.47;10.30;;;9.10;51.60;;;;;;5033227;28;20420;-80
2021/10/25 08:58:07;;;;;;;11.67;10.60;;;9.10;51.60;;;;;;5032681;28;20420;-80
2021/10/25 09:00:38;;;;;;;13.53;12.33;;;9.10;51.60;;;;;;5034194;28;20486;-89
2021/10/25 09:03:04;;;;;;;11.90;10.70;;;9.20;51.10;;;;;;5032906;28;20204;-88
2021/10/25 09:05:31;;;;;;;12.13;10.93;;;9.20;51.70;;;;;;5033470;28;20451;-79
2021/10/25 09:08:04;;;;;;;12.03;10.70;;;9.30;51.30;;;;;;5034367;28;20419;-79
2021/10/25 09:10:33;;;;;;;14.00;12.73;;;9.30;51.80;;;;;;5032718;28;20466;-79
2021/10/25 09:13:06;;;;;;;13.30;11.70;;;9.30;50.90;;;;;;5032942;28;20433;-80
2021/10/25 09:15:40;;;;;;;12.53;11.23;;;9.30;51.10;;;;;;5031942;28;20428;-80
2021/10/25 09:18:21;;;;;;;11.80;10.73;;;9.30;51.30;;;;;;5031873;28;20422;-79
2021/10/25 09:20:49;;;;;;;12.33;11.23;;;9.40;51.80;;;;;;5033719;28;20420;-80
2021/10/25 09:23:17;;;;;;;13.73;12.33;;;9.40;51.70;;;;;;5032511;28;20511;-80
2021/10/25 09:25:43;;;;;;;12.23;11.03;;;9.40;50.80;;;;;;5032278;28;20783;-80
2021/10/25 09:28:20;;;;;;;14.43;13.13;;;9.50;50.60;;;;;;5032346;28;20411;-80
2021/10/25 09:30:51;;;;;;;11.67;10.57;;;9.60;51.30;;;;;;5032541;28;20521;-79
2021/10/25 09:33:21;;;;;;;11.80;10.60;;;9.70;51.60;;;;;;5032197;28;20418;-79
2021/10/25 09:36:01;;;;;;;8.87;8.17;;;9.80;52.20;;;;;;5032170;28;20526;-80
2021/10/25 09:38:35;;;;;;;9.60;8.80;;;9.90;52.00;;;;;;5031553;28;20466;-81
2021/10/25 09:41:34;;;;;;;8.70;7.90;;;10.10;50.30;;;;;;5031775;28;20431;-80
2021/10/25 09:49:37;;;;;;;11.20;10.10;;;10.60;48.80;;;;;;5032893;28;20568;-80
2021/10/25 09:52:06;;;;;;;12.47;10.90;;;10.70;48.00;;;;;;5031716;28;20763;-79
2021/10/25 09:54:33;;;;;;;11.93;10.70;;;10.80;48.40;;;;;;5031457;28;20407;-80
2021/10/25 09:57:07;;;;;;;12.00;7.90;;;11.00;48.10;;;;;;5031322;28;20833;-81
2021/10/25 10:02:11;;;;;;;8.47;6.33;;;11.40;44.50;;;;;;5033182;28;20489;-80
2021/10/25 10:04:38;;;;;;;7.27;6.60;;;11.60;44.80;;;;;;5031498;28;20778;-80
2021/10/25 10:07:04;;;;;;;5.03;4.63;;;11.60;43.90;;;;;;5031192;28;20841;-80
2021/10/25 10:09:31;;;;;;;5.70;5.30;;;11.60;44.20;;;;;;5031145;28;20485;-80
2021/10/25 10:11:57;;;;;;;9.20;6.33;;;11.60;44.90;;;;;;5032028;28;20418;-80
2021/10/25 10:14:25;;;;;;;6.30;5.40;;;11.60;43.00;;;;;;5031668;28;20435;-88
2021/10/25 10:16:51;;;;;;;6.60;5.53;;;11.70;43.10;;;;;;5032802;28;20514;-87
2021/10/25 10:19:23;;;;;;;5.87;5.10;;;11.70;43.40;;;;;;5032381;28;20514;-86
2021/10/25 10:21:55;;;;;;;13.87;5.40;;;11.80;44.20;;;;;;5031923;28;20188;-89
2021/10/25 10:24:29;;;;;;;5.97;5.37;;;11.80;44.40;;;;;;5032387;28;20482;-82
2021/10/25 10:26:57;;;;;;;5.50;5.00;;;11.80;43.90;;;;;;5031810;28;20423;-84
2021/10/25 10:29:24;;;;;;;5.93;5.43;;;11.90;44.30;;;;;;5031923;28;20463;-88
2021/10/25 10:32:02;;;;;;;6.33;5.80;;;12.10;42.60;;;;;;5032334;28;20426;-81
2021/10/25 10:34:39;;;;;;;6.60;5.97;;;12.00;45.00;;;;;;5032765;28;20815;-88
2021/10/25 10:37:24;;;;;;;6.50;5.90;;;12.00;44.20;;;;;;5031974;28;20443;-81
2021/10/25 10:40:08;;;;;;;7.95;5.28;;;12.10;44.30;;;;;;5031477;28;20468;-81
2021/10/25 10:42:41;;;;;;;7.10;6.50;;;12.00;44.10;;;;;;5031324;28;20187;-83
2021/10/25 10:45:10;;;;;;;6.23;5.60;;;12.00;44.10;;;;;;5031493;28;20446;-81
2021/10/25 10:47:51;;;;;;;7.13;5.13;;;12.00;43.80;;;;;;5030930;28;20486;-79
2021/10/25 10:50:31;;;;;;;8.17;7.57;;;12.10;43.50;;;;;;5031451;28;20471;-80
2021/10/25 10:53:24;;;;;;;9.93;9.00;;;12.10;43.50;;;;;;5031259;28;20411;-81
2021/10/25 10:55:54;;;;;;;8.00;7.27;;;12.20;42.90;;;;;;5031402;28;20911;-82
2021/10/25 10:58:27;;;;;;;7.77;6.80;;;12.20;43.50;;;;;;5034473;28;20422;-81
2021/10/25 11:01:05;;;;;;;9.10;7.43;;;12.20;43.60;;;;;;5035349;28;20453;-80
2021/10/25 11:03:31;;;;;;;9.47;8.20;;;12.20;43.50;;;;;;5035907;28;20418;-81
2021/10/25 11:06:03;;;;;;;8.47;7.57;;;12.30;42.90;;;;;;5034277;28;20423;-82
2021/10/25 11:08:34;;;;;;;9.73;8.70;;;12.30;43.60;;;;;;5036240;28;20428;-82
2021/10/25 11:11:09;;;;;;;9.87;9.00;;;12.30;43.60;;;;;;5034920;28;20423;-81
2021/10/25 11:14:06;;;;;;;8.60;7.70;;;12.20;44.30;;;;;;5035079;28;20437;-82
2021/10/25 11:16:39;;;;;;;10.47;8.60;;;12.30;43.70;;;;;;5034551;28;20501;-82
2021/10/25 11:19:07;;;;;;;8.43;7.53;;;12.40;43.70;;;;;;5034777;28;20415;-82
2021/10/25 11:21:37;;;;;;;9.90;8.00;;;12.50;43.90;;;;;;5034585;28;20421;-80
2021/10/25 11:24:05;;;;;;;10.03;6.93;;;12.50;43.80;;;;;;5035061;28;20426;-81
2021/10/25 11:26:35;;;;;;;8.17;7.37;;;12.50;43.20;;;;;;5035836;28;20418;-82
2021/10/25 11:29:08;;;;;;;9.07;8.00;;;12.60;43.50;;;;;;5034311;28;20886;-81
2021/10/25 11:31:40;;;;;;;9.87;8.27;;;12.60;42.80;;;;;;5034372;28;21061;-81
2021/10/25 11:34:14;;;;;;;8.40;7.80;;;12.60;43.40;;;;;;5033795;28;20412;-82
2021/10/25 11:36:58;;;;;;;8.93;7.83;;;12.60;43.70;;;;;;5033774;28;20465;-82
2021/10/25 11:39:48;;;;;;;7.83;7.13;;;12.60;43.50;;;;;;5035620;28;20407;-81
2021/10/25 11:42:16;;;;;;;8.73;7.83;;;12.70;43.20;;;;;;5033943;28;20451;-81
2021/10/25 11:45:05;;;;;;;8.93;8.20;;;12.70;42.50;;;;;;5034141;28;20407;-81
2021/10/25 11:47:36;;;;;;;7.80;7.00;;;12.70;43.20;;;;;;5034007;28;20755;-81
2021/10/25 11:50:13;;;;;;;9.20;7.57;;;12.80;43.00;;;;;;5034037;28;21072;-83
2021/10/25 11:53:02;;;;;;;9.10;7.70;;;12.80;43.10;;;;;;5034238;28;20423;-82
2021/10/25 11:55:36;;;;;;;8.37;7.67;;;12.80;42.90;;;;;;5034613;28;20435;-82
2021/10/25 11:58:03;;;;;;;9.80;8.90;;;12.90;43.20;;;;;;5034262;28;20420;-81
2021/10/25 12:00:30;;;;;;;10.13;6.83;;;12.90;42.40;;;;;;5035385;28;20454;-81
2021/10/25 12:03:05;;;;;;;8.40;7.70;;;12.90;43.00;;;;;;5034281;28;20514;-81
2021/10/25 12:05:31;;;;;;;11.93;7.57;;;13.10;42.20;;;;;;5034388;28;20418;-81
2021/10/25 12:07:57;;;;;;;8.00;7.20;;;13.10;41.70;;;;;;5033376;28;20422;-81
2021/10/25 12:10:25;;;;;;;10.20;7.53;;;13.20;42.00;;;;;;5035452;28;21177;-81
2021/10/25 12:12:53;;;;;;;9.07;8.20;;;13.20;41.60;;;;;;5033611;28;20203;-81
2021/10/25 12:15:20;;;;;;;8.87;7.97;;;13.20;42.20;;;;;;5033292;28;20454;-82
2021/10/25 12:17:48;;;;;;;9.17;8.27;;;13.20;42.00;;;;;;5033671;28;20422;-82
2021/10/25 12:20:23;;;;;;;9.00;7.50;;;13.30;41.10;;;;;;5033532;28;20859;-82
2021/10/25 12:23:05;;;;;;;13.40;7.30;;;13.30;42.20;;;;;;5034268;28;20778;-89
2021/10/25 12:25:32;;;;;;;8.47;7.50;;;13.30;41.70;;;;;;5034576;28;20419;-86
2021/10/25 12:28:11;;;;;;;7.50;6.80;;;13.30;41.90;;;;;;5034453;28;20422;-88
2021/10/25 12:30:37;;;;;;;8.10;7.30;;;13.30;42.30;;;;;;5034642;28;20466;-88
2021/10/25 12:33:03;;;;;;;7.57;6.80;;;13.30;41.50;;;;;;5034608;28;20425;-87
2021/10/25 12:35:38;;;;;;;7.90;7.17;;;13.40;41.00;;;;;;5034802;28;20411;-88
2021/10/25 12:38:09;;;;;;;7.40;6.60;;;13.50;41.20;;;;;;5034106;28;20430;-88
2021/10/25 12:40:53;;;;;;;7.00;6.40;;;13.50;41.30;;;;;;5034482;28;20938;-87
2021/10/25 12:43:20;;;;;;;7.80;5.60;;;13.50;41.20;;;;;;5034291;28;20426;-88
2021/10/25 12:46:04;;;;;;;7.90;6.03;;;13.50;40.90;;;;;;5034381;28;20416;-88
2021/10/25 12:48:43;;;;;;;8.60;6.40;;;13.60;40.70;;;;;;5033622;28;20942;-87
2021/10/25 12:51:10;;;;;;;5.87;5.37;;;13.60;40.60;;;;;;5033870;28;20805;-86
2021/10/25 12:53:36;;;;;;;7.73;7.03;;;13.60;40.90;;;;;;5033555;28;20416;-87
2021/10/25 12:56:02;;;;;;;9.60;6.47;;;13.70;41.10;;;;;;5035361;28;20430;-86
2021/10/25 12:58:28;;;;;;;5.97;5.23;;;13.80;41.20;;;;;;5033553;28;20922;-86
2021/10/25 13:00:54;;;;;;;6.03;5.47;;;13.80;40.90;;;;;;5033326;28;20790;-87
2021/10/25 13:03:28;;;;;;;5.17;4.67;;;13.90;40.40;;;;;;5034841;28;20498;-87
2021/10/25 13:06:04;;;;;;;7.10;6.40;;;14.00;40.50;;;;;;5033875;28;20527;-88
2021/10/25 13:08:29;;;;;;;9.73;5.90;;;14.00;40.00;;;;;;5034117;28;20827;-86
2021/10/25 13:10:55;;;;;;;7.53;6.40;;;14.10;39.70;;;;;;5034178;28;20462;-87
2021/10/25 13:13:26;;;;;;;8.43;5.87;;;14.30;39.70;;;;;;5034437;28;20188;-87
2021/10/25 13:15:51;;;;;;;8.23;5.30;;;14.50;37.70;;;;;;5034947;28;20652;-89
2021/10/25 13:18:17;;;;;;;6.17;5.60;;;14.50;36.70;;;;;;5033960;28;20416;-87
2021/10/25 13:20:43;;;;;;;5.70;5.10;;;14.60;36.90;;;;;;5033972;28;20212;-87
2021/10/25 13:23:11;;;;;;;8.53;5.57;;;14.60;36.80;;;;;;5033374;28;20180;-88
2021/10/25 13:25:38;;;;;;;6.03;5.40;;;14.60;36.10;;;;;;5033611;28;20208;-87
2021/10/25 13:28:05;;;;;;;5.57;5.07;;;14.70;35.90;;;;;;5032685;28;20416;-87
2021/10/25 13:30:31;;;;;;;7.30;5.93;;;14.60;35.60;;;;;;5032827;28;20466;-87
2021/10/25 13:32:58;;;;;;;5.73;5.20;;;14.70;35.70;;;;;;5032470;28;20417;-88
2021/10/25 13:35:24;;;;;;;7.43;5.20;;;14.70;36.50;;;;;;5032299;28;20412;-86
2021/10/25 13:37:52;;;;;;;5.80;5.30;;;14.70;36.60;;;;;;5032345;28;20443;-87
2021/10/25 13:40:20;;;;;;;6.40;4.70;;;14.60;36.50;;;;;;5032957;28;20450;-87
2021/10/25 13:42:46;;;;;;;5.60;5.10;;;14.60;35.50;;;;;;5028788;28;20429;-87
2021/10/25 13:45:12;;;;;;;7.53;4.90;;;14.60;35.60;;;;;;5030268;28;20477;-86
2021/10/25 13:47:38;;;;;;;6.07;5.33;;;14.60;35.60;;;;;;5029927;28;20462;-87
2021/10/25 13:50:05;;;;;;;4.23;3.90;;;14.70;35.70;;;;;;5029475;28;20801;-86
2021/10/25 13:52:31;;;;;;;5.87;4.47;;;14.60;35.60;;;;;;5029437;28;20452;-87
2021/10/25 13:54:57;;;;;;;5.40;4.90;;;14.60;35.60;;;;;;5014637;28;20478;-88
2021/10/25 13:57:24;;;;;;;4.57;4.17;;;14.60;35.60;;;;;;5029507;28;20416;-88
2021/10/25 13:59:50;;;;;;;5.00;4.33;;;14.60;35.60;;;;;;5029546;28;20420;-86
2021/10/25 14:02:16;;;;;;;6.10;5.10;;;14.60;35.50;;;;;;5029847;28;20478;-87
2021/10/25 14:04:51;;;;;;;4.40;4.00;;;14.60;35.50;;;;;;5028667;28;20440;-82
2021/10/25 14:07:20;;;;;;;13.27;5.90;;;14.60;34.80;;;;;;5027855;28;20439;-82
2021/10/25 14:10:02;;;;;;;5.63;4.40;;;14.60;34.50;;;;;;5028020;28;20475;-82
2021/10/25 14:12:29;;;;;;;5.53;4.90;;;14.60;35.00;;;;;;5028148;28;20943;-79
2021/10/25 14:15:44;;;;;;;6.70;5.30;;;14.60;34.50;;;;;;5027959;28;20424;-81
2021/10/25 14:17:41;;;;;;;6.63;5.90;;;14.60;34.30;;;;;;5008524;28;20428;-80
2021/10/25 14:20:07;;;;;;;9.10;8.20;;;14.60;33.10;;;;;;5017132;28;20807;-81
2021/10/25 14:22:33;;;;;;;9.00;7.17;;;14.70;33.20;;;;;;5030363;28;20424;-83
2021/10/25 14:24:59;;;;;;;9.63;7.67;;;14.70;33.10;;;;;;5032287;28;20803;-81
2021/10/25 14:27:24;;;;;;;8.63;7.70;;;14.60;32.80;;;;;;5011626;28;20271;-87
2021/10/25 14:29:50;;;;;;;13.67;8.53;;;14.60;32.90;;;;;;5014011;28;20201;-86
2021/10/25 14:32:16;;;;;;;10.53;9.00;;;14.70;32.30;;;;;;5027469;28;20236;-86
2021/10/25 14:34:42;;;;;;;11.97;9.00;;;14.70;32.20;;;;;;5032512;28;20267;-88
2021/10/25 14:37:08;;;;;;;10.27;6.87;;;14.70;32.00;;;;;;5032494;28;20199;-86